Time;durP1;ratioP1;P1;durP2;ratioP2;P2;SDS_P1;SDS_P2;PMS_P1;PMS_P2;Temp;Humidity;BMP_temperature;BMP_pressure;BME280_temperature;BME280_humidity;BME280_pressure;Samples;Min_cycle;Max_cycle;Signal;HPM_P1;HPM_P2
2023/05/28 00:01:03;;;;;;;5.82;2.30;;;;;;;;;;2100380;28;20028;-59
2023/05/28 00:02:22;;;;;;;4.97;1.92;;;;;;;;;;2103716;28;20020;-57
2023/05/28 00:03:41;;;;;;;4.68;2.17;;;;;;;;;;2103663;28;20032;-59
2023/05/28 00:05:00;;;;;;;5.28;2.38;;;;;;;;;;2104223;28;20036;-59
2023/05/28 00:06:19;;;;;;;5.60;2.65;;;;;;;;;;2103679;28;20059;-59
2023/05/28 00:07:39;;;;;;;7.72;2.53;;;;;;;;;;2103934;28;20043;-59
2023/05/28 00:08:58;;;;;;;6.03;1.98;;;;;;;;;;2101417;28;20051;-59
2023/05/28 00:10:17;;;;;;;5.45;2.63;;;;;;;;;;2103293;28;20016;-58
2023/05/28 00:11:36;;;;;;;5.18;2.30;;;;;;;;;;2101721;28;20111;-60
2023/05/28 00:12:56;;;;;;;4.50;2.45;;;;;;;;;;2102999;28;20058;-58
2023/05/28 00:14:15;;;;;;;5.78;2.38;;;;;;;;;;2103768;28;20516;-59
2023/05/28 00:15:35;;;;;;;5.93;2.10;;;;;;;;;;2100569;28;20059;-59
2023/05/28 00:16:54;;;;;;;6.00;2.47;;;;;;;;;;2103126;28;20025;-58
2023/05/28 00:18:14;;;;;;;3.30;2.03;;;;;;;;;;2104264;28;20036;-59
2023/05/28 00:19:33;;;;;;;4.80;2.17;;;;;;;;;;2103714;28;20032;-59
2023/05/28 00:20:52;;;;;;;5.18;2.38;;;;;;;;;;2101338;28;20055;-60
2023/05/28 00:22:11;;;;;;;5.00;2.25;;;;;;;;;;2103904;28;20052;-59
2023/05/28 00:23:30;;;;;;;7.18;2.50;;;;;;;;;;2099669;28;20052;-60
2023/05/28 00:24:49;;;;;;;6.43;2.25;;;;;;;;;;2102490;28;20059;-60
2023/05/28 00:26:08;;;;;;;7.00;2.35;;;;;;;;;;2103326;28;20036;-59
2023/05/28 00:27:27;;;;;;;3.97;2.40;;;;;;;;;;2104511;28;20038;-59
2023/05/28 00:28:46;;;;;;;5.72;1.85;;;;;;;;;;2102033;28;20485;-58
2023/05/28 00:30:06;;;;;;;5.68;2.58;;;;;;;;;;2101476;28;20385;-59
2023/05/28 00:31:25;;;;;;;5.13;2.45;;;;;;;;;;2103564;28;20448;-59
2023/05/28 00:32:44;;;;;;;4.45;2.30;;;;;;;;;;2101674;28;20945;-59
2023/05/28 00:34:02;;;;;;;5.55;2.67;;;;;;;;;;2104223;28;20032;-60
2023/05/28 00:35:21;;;;;;;6.55;2.42;;;;;;;;;;2104172;28;20024;-59
2023/05/28 00:36:40;;;;;;;6.60;2.50;;;;;;;;;;2103787;28;20024;-59
2023/05/28 00:37:59;;;;;;;4.65;2.13;;;;;;;;;;2103625;28;20036;-59
2023/05/28 00:39:19;;;;;;;6.93;2.40;;;;;;;;;;2104543;28;20039;-59
2023/05/28 00:40:42;;;;;;;5.65;2.10;;;;;;;;;;2103143;28;20107;-61
2023/05/28 00:42:10;;;;;;;5.80;2.05;;;;;;;;;;2103917;28;20067;-59
2023/05/28 00:43:29;;;;;;;3.70;1.80;;;;;;;;;;2104530;28;20388;-59
2023/05/28 00:44:48;;;;;;;8.77;2.80;;;;;;;;;;2100842;28;20481;-59
2023/05/28 00:46:08;;;;;;;6.38;3.05;;;;;;;;;;2104035;28;20484;-59
2023/05/28 00:47:27;;;;;;;6.72;2.45;;;;;;;;;;2102491;28;20040;-58
2023/05/28 00:48:46;;;;;;;4.50;2.60;;;;;;;;;;2101486;28;20020;-59
2023/05/28 00:50:09;;;;;;;6.85;2.30;;;;;;;;;;2103555;28;20452;-58
2023/05/28 00:51:28;;;;;;;5.22;2.78;;;;;;;;;;2103660;28;20020;-58
2023/05/28 00:52:49;;;;;;;5.45;2.50;;;;;;;;;;2102938;28;20028;-58
2023/05/28 00:54:08;;;;;;;3.65;1.63;;;;;;;;;;2104885;28;20021;-62
2023/05/28 00:55:26;;;;;;;6.20;2.50;;;;;;;;;;2104431;28;20036;-58
2023/05/28 00:56:46;;;;;;;5.20;2.80;;;;;;;;;;2103662;28;20024;-57
2023/05/28 00:58:07;;;;;;;5.50;2.22;;;;;;;;;;2102657;28;20028;-59
2023/05/28 00:59:26;;;;;;;3.88;2.42;;;;;;;;;;2103416;28;20027;-58
2023/05/28 01:00:45;;;;;;;5.78;2.33;;;;;;;;;;2101075;28;20032;-58
2023/05/28 01:02:05;;;;;;;6.10;2.25;;;;;;;;;;2103236;28;20036;-59
2023/05/28 01:03:25;;;;;;;4.70;2.40;;;;;;;;;;2102308;28;20147;-59
2023/05/28 01:04:44;;;;;;;10.20;2.92;;;;;;;;;;2102947;28;20111;-59
2023/05/28 01:06:09;;;;;;;5.05;2.28;;;;;;;;;;2101996;28;20385;-60
2023/05/28 01:07:28;;;;;;;9.13;3.03;;;;;;;;;;2104785;28;20051;-59
2023/05/28 01:08:48;;;;;;;5.18;2.47;;;;;;;;;;2102542;28;20028;-60
2023/05/28 01:10:07;;;;;;;7.07;2.50;;;;;;;;;;2103894;28;20040;-58
2023/05/28 01:11:27;;;;;;;4.90;2.33;;;;;;;;;;2104971;28;20028;-59
2023/05/28 01:12:46;;;;;;;2.88;2.33;;;;;;;;;;2102645;28;20024;-58
2023/05/28 01:14:07;;;;;;;4.18;2.08;;;;;;;;;;2102952;28;20020;-59
2023/05/28 01:15:26;;;;;;;6.10;2.63;;;;;;;;;;2100772;28;20054;-59
2023/05/28 01:16:48;;;;;;;4.22;2.60;;;;;;;;;;2101415;28;20032;-58
2023/05/28 01:18:06;;;;;;;7.32;2.75;;;;;;;;;;2102760;28;20742;-58
2023/05/28 01:19:26;;;;;;;3.40;2.05;;;;;;;;;;2102059;28;20028;-59
2023/05/28 01:20:45;;;;;;;9.52;2.50;;;;;;;;;;2103170;28;20040;-59
2023/05/28 01:22:05;;;;;;;5.75;2.55;;;;;;;;;;2103386;28;20035;-59
2023/05/28 01:23:26;;;;;;;6.60;2.97;;;;;;;;;;2102050;28;20028;-59
2023/05/28 01:24:46;;;;;;;4.93;2.28;;;;;;;;;;2103462;28;20114;-59
2023/05/28 01:26:05;;;;;;;6.57;2.53;;;;;;;;;;2103852;28;20118;-58
2023/05/28 01:27:25;;;;;;;6.30;2.70;;;;;;;;;;2104529;28;20552;-59
2023/05/28 01:28:45;;;;;;;7.30;2.38;;;;;;;;;;2100967;28;20044;-58
2023/05/28 01:30:07;;;;;;;5.43;2.45;;;;;;;;;;2102296;28;20059;-59
2023/05/28 01:31:26;;;;;;;4.43;2.40;;;;;;;;;;2104923;28;20388;-58
2023/05/28 01:32:45;;;;;;;9.68;2.72;;;;;;;;;;2105583;28;20385;-59
2023/05/28 01:34:03;;;;;;;8.50;2.75;;;;;;;;;;2105592;28;20020;-60
2023/05/28 01:35:22;;;;;;;5.95;2.58;;;;;;;;;;2103830;28;20178;-59
2023/05/28 01:36:43;;;;;;;5.90;2.85;;;;;;;;;;2104996;28;20028;-58
2023/05/28 01:38:03;;;;;;;4.63;2.40;;;;;;;;;;2104912;28;20095;-67
2023/05/28 01:39:24;;;;;;;5.70;2.70;;;;;;;;;;2103102;28;20572;-58
2023/05/28 01:40:44;;;;;;;8.27;2.90;;;;;;;;;;2105689;28;20035;-59
2023/05/28 01:42:03;;;;;;;5.80;2.40;;;;;;;;;;2104561;28;20428;-59
2023/05/28 01:43:22;;;;;;;6.10;2.90;;;;;;;;;;2102332;28;20036;-58
2023/05/28 01:44:41;;;;;;;7.30;2.70;;;;;;;;;;2105629;28;20024;-59
2023/05/28 01:46:00;;;;;;;4.13;2.00;;;;;;;;;;2102274;28;20493;-59
2023/05/28 01:47:19;;;;;;;7.70;2.80;;;;;;;;;;2105420;28;20040;-60
2023/05/28 01:48:38;;;;;;;4.45;2.45;;;;;;;;;;2105357;28;20501;-58
2023/05/28 01:49:57;;;;;;;4.78;2.45;;;;;;;;;;2105013;28;20036;-59
2023/05/28 01:51:17;;;;;;;5.15;2.50;;;;;;;;;;2105949;28;20032;-59
2023/05/28 01:52:36;;;;;;;5.00;2.72;;;;;;;;;;2100616;28;20032;-59
2023/05/28 01:53:55;;;;;;;3.65;2.40;;;;;;;;;;2105083;28;20032;-62
2023/05/28 01:55:14;;;;;;;7.32;2.38;;;;;;;;;;2105243;28;20111;-59
2023/05/28 01:56:33;;;;;;;3.70;2.20;;;;;;;;;;2105115;28;20481;-59
2023/05/28 01:57:52;;;;;;;3.75;2.30;;;;;;;;;;2104058;28;20592;-59
2023/05/28 01:59:11;;;;;;;3.47;2.63;;;;;;;;;;2104597;28;20064;-58
2023/05/28 02:00:30;;;;;;;2.83;1.95;;;;;;;;;;2104703;27;20036;-59
2023/05/28 02:01:49;;;;;;;4.00;2.50;;;;;;;;;;2103711;28;20024;-59
2023/05/28 02:03:11;;;;;;;7.22;2.78;;;;;;;;;;2102491;28;20032;-58
2023/05/28 02:04:30;;;;;;;3.75;2.50;;;;;;;;;;2104019;28;20481;-58
2023/05/28 02:05:49;;;;;;;3.63;2.60;;;;;;;;;;2106371;28;20107;-58
2023/05/28 02:07:08;;;;;;;5.85;2.92;;;;;;;;;;2103437;28;20056;-60
2023/05/28 02:08:27;;;;;;;5.00;2.03;;;;;;;;;;2104756;28;20106;-59
2023/05/28 02:09:46;;;;;;;4.85;2.33;;;;;;;;;;2102471;28;20096;-58
2023/05/28 02:11:05;;;;;;;4.05;2.70;;;;;;;;;;2105323;28;20040;-59
2023/05/28 02:12:24;;;;;;;7.72;2.65;;;;;;;;;;2105166;28;20401;-59
2023/05/28 02:13:43;;;;;;;6.65;2.78;;;;;;;;;;2104307;28;20094;-59
2023/05/28 02:15:03;;;;;;;4.47;2.58;;;;;;;;;;2102591;28;20058;-58
2023/05/28 02:16:23;;;;;;;8.57;2.65;;;;;;;;;;2105186;28;20020;-59
2023/05/28 02:17:43;;;;;;;5.07;2.80;;;;;;;;;;2105019;28;20419;-59
2023/05/28 02:19:03;;;;;;;4.53;2.55;;;;;;;;;;2103485;28;20058;-58
2023/05/28 02:20:22;;;;;;;8.13;2.53;;;;;;;;;;2104093;28;20420;-59
2023/05/28 02:21:41;;;;;;;6.88;3.08;;;;;;;;;;2105151;28;21311;-59
2023/05/28 02:23:00;;;;;;;8.10;2.67;;;;;;;;;;2104458;28;20032;-58
2023/05/28 02:24:19;;;;;;;9.18;2.72;;;;;;;;;;2105253;28;20028;-58
2023/05/28 02:25:38;;;;;;;5.20;2.78;;;;;;;;;;2104127;28;20036;-59
2023/05/28 02:26:57;;;;;;;6.53;2.60;;;;;;;;;;2104103;28;20114;-59
2023/05/28 02:28:16;;;;;;;5.57;2.80;;;;;;;;;;2104515;28;20040;-58
2023/05/28 02:29:35;;;;;;;8.90;3.30;;;;;;;;;;2103438;28;20024;-61
2023/05/28 02:30:54;;;;;;;8.02;2.60;;;;;;;;;;2101695;28;20020;-58
2023/05/28 02:32:13;;;;;;;4.68;2.58;;;;;;;;;;2103285;28;20476;-59
2023/05/28 02:33:33;;;;;;;8.00;2.30;;;;;;;;;;2104301;28;20381;-58
2023/05/28 02:34:54;;;;;;;9.68;2.75;;;;;;;;;;2106703;28;20473;-59
2023/05/28 02:36:13;;;;;;;6.82;3.03;;;;;;;;;;2105384;28;20020;-59
2023/05/28 02:37:32;;;;;;;8.05;2.97;;;;;;;;;;2102884;28;20027;-58
2023/05/28 02:38:51;;;;;;;4.43;2.83;;;;;;;;;;2104045;28;20501;-59
2023/05/28 02:40:10;;;;;;;7.03;2.90;;;;;;;;;;2105395;28;20036;-58
2023/05/28 02:41:29;;;;;;;6.15;2.88;;;;;;;;;;2104043;28;20480;-58
2023/05/28 02:42:48;;;;;;;8.73;3.35;;;;;;;;;;2104727;28;20064;-59
2023/05/28 02:44:06;;;;;;;6.07;2.38;;;;;;;;;;2101873;28;20020;-58
2023/05/28 02:45:26;;;;;;;2.72;2.30;;;;;;;;;;2102781;28;20040;-58
2023/05/28 02:46:45;;;;;;;9.13;2.60;;;;;;;;;;2106078;28;20039;-58
2023/05/28 02:48:04;;;;;;;8.70;3.05;;;;;;;;;;2100618;28;20473;-62
2023/05/28 02:49:23;;;;;;;6.97;2.80;;;;;;;;;;2099621;28;20396;-59
2023/05/28 02:50:42;;;;;;;8.00;3.25;;;;;;;;;;2101978;28;20036;-59
2023/05/28 02:52:01;;;;;;;6.55;2.55;;;;;;;;;;2105103;28;20036;-60
2023/05/28 02:53:21;;;;;;;5.53;2.80;;;;;;;;;;2106210;28;20051;-59
2023/05/28 02:54:40;;;;;;;5.38;2.63;;;;;;;;;;2102202;28;20036;-57
2023/05/28 02:55:59;;;;;;;11.13;3.33;;;;;;;;;;2104982;28;20036;-59
2023/05/28 02:57:19;;;;;;;7.00;3.10;;;;;;;;;;2102260;28;20036;-59
2023/05/28 02:58:39;;;;;;;8.90;2.78;;;;;;;;;;2103906;28;20099;-58
2023/05/28 02:59:58;;;;;;;5.90;2.63;;;;;;;;;;2102770;28;20118;-59
2023/05/28 03:01:17;;;;;;;4.45;2.78;;;;;;;;;;2102908;28;20028;-59
2023/05/28 03:02:35;;;;;;;5.10;2.80;;;;;;;;;;2105016;28;20052;-59
2023/05/28 03:03:54;;;;;;;7.78;2.90;;;;;;;;;;2102117;28;20036;-59
2023/05/28 03:05:13;;;;;;;4.82;2.90;;;;;;;;;;2103632;28;20461;-58
2023/05/28 03:06:33;;;;;;;7.40;2.85;;;;;;;;;;2105233;28;20035;-59
2023/05/28 03:07:52;;;;;;;5.57;2.75;;;;;;;;;;2104670;28;20047;-59
2023/05/28 03:09:11;;;;;;;5.53;2.70;;;;;;;;;;2106041;28;20024;-59
2023/05/28 03:10:30;;;;;;;8.55;3.40;;;;;;;;;;2102938;28;20103;-59
2023/05/28 03:11:49;;;;;;;5.55;2.67;;;;;;;;;;2105341;28;20024;-59
2023/05/28 03:13:08;;;;;;;7.30;3.42;;;;;;;;;;2103946;28;20423;-61
2023/05/28 03:14:27;;;;;;;6.72;3.00;;;;;;;;;;2104421;28;20063;-59
2023/05/28 03:15:46;;;;;;;7.72;2.88;;;;;;;;;;2097831;28;20077;-59
2023/05/28 03:17:05;;;;;;;9.32;3.10;;;;;;;;;;2103582;28;20024;-58
2023/05/28 03:18:24;;;;;;;5.53;2.85;;;;;;;;;;2103401;28;20443;-60
2023/05/28 03:19:43;;;;;;;13.13;3.40;;;;;;;;;;2103475;28;20751;-61
2023/05/28 03:21:02;;;;;;;8.10;3.80;;;;;;;;;;2104729;28;20020;-59
2023/05/28 03:22:21;;;;;;;6.05;3.33;;;;;;;;;;2103793;28;20028;-59
2023/05/28 03:23:40;;;;;;;7.93;3.05;;;;;;;;;;2103259;28;20107;-58
2023/05/28 03:24:59;;;;;;;5.45;3.42;;;;;;;;;;2105540;28;20067;-58
2023/05/28 03:26:17;;;;;;;7.15;2.97;;;;;;;;;;2104990;28;20033;-59
2023/05/28 03:27:36;;;;;;;5.85;2.80;;;;;;;;;;2103685;28;20397;-60
2023/05/28 03:28:55;;;;;;;7.85;3.42;;;;;;;;;;2103199;28;20489;-60
2023/05/28 03:30:15;;;;;;;4.80;2.85;;;;;;;;;;2102813;28;20032;-59
2023/05/28 03:31:42;;;;;;;6.38;2.92;;;;;;;;;;2104245;28;20024;-59
2023/05/28 03:33:01;;;;;;;5.13;2.85;;;;;;;;;;2102592;28;20028;-59
2023/05/28 03:34:21;;;;;;;8.68;3.03;;;;;;;;;;2104726;28;20036;-59
2023/05/28 03:35:40;;;;;;;8.27;3.47;;;;;;;;;;2104043;28;20419;-59
2023/05/28 03:36:59;;;;;;;5.97;2.95;;;;;;;;;;2104232;28;20036;-59
2023/05/28 03:38:18;;;;;;;10.55;3.40;;;;;;;;;;2103742;28;20032;-60
2023/05/28 03:39:37;;;;;;;7.13;3.15;;;;;;;;;;2103333;28;20485;-59
2023/05/28 03:40:56;;;;;;;11.63;3.22;;;;;;;;;;2103529;28;20040;-59
2023/05/28 03:42:15;;;;;;;9.85;3.50;;;;;;;;;;2103724;28;20040;-58
2023/05/28 03:43:35;;;;;;;6.43;3.08;;;;;;;;;;2104014;28;20690;-60
2023/05/28 03:44:53;;;;;;;7.07;3.13;;;;;;;;;;2103414;28;20036;-60
2023/05/28 03:46:12;;;;;;;7.57;3.28;;;;;;;;;;2103162;28;20036;-60
2023/05/28 03:47:32;;;;;;;8.35;3.22;;;;;;;;;;2103821;28;20062;-59
2023/05/28 03:48:52;;;;;;;7.60;2.58;;;;;;;;;;2103696;28;20032;-60
2023/05/28 03:50:10;;;;;;;7.93;3.17;;;;;;;;;;2104283;28;20483;-59
2023/05/28 03:51:29;;;;;;;5.30;2.78;;;;;;;;;;2102914;28;20024;-60
2023/05/28 03:52:48;;;;;;;6.07;2.67;;;;;;;;;;2102714;28;20032;-59
2023/05/28 03:54:07;;;;;;;13.60;3.63;;;;;;;;;;2104997;28;20032;-58
2023/05/28 03:55:26;;;;;;;11.45;3.67;;;;;;;;;;2102748;28;20028;-59
2023/05/28 03:56:45;;;;;;;9.85;3.35;;;;;;;;;;2103755;28;20028;-59
2023/05/28 03:58:04;;;;;;;8.02;3.55;;;;;;;;;;2103492;28;20095;-58
2023/05/28 03:59:23;;;;;;;6.75;2.97;;;;;;;;;;2101545;28;20024;-58
2023/05/28 04:00:42;;;;;;;6.90;2.88;;;;;;;;;;2101790;28;20477;-59
2023/05/28 04:02:01;;;;;;;6.85;3.22;;;;;;;;;;2103470;28;20032;-60
2023/05/28 04:03:20;;;;;;;6.70;2.92;;;;;;;;;;2104306;28;20107;-58
2023/05/28 04:04:39;;;;;;;9.68;3.10;;;;;;;;;;2103917;28;20032;-58
2023/05/28 04:05:59;;;;;;;5.95;2.90;;;;;;;;;;2104486;28;20028;-59
2023/05/28 04:07:18;;;;;;;15.20;3.17;;;;;;;;;;2103006;28;20132;-58
2023/05/28 04:08:37;;;;;;;9.25;3.28;;;;;;;;;;2103941;28;20032;-59
2023/05/28 04:09:56;;;;;;;6.97;3.53;;;;;;;;;;2103987;28;20713;-59
2023/05/28 04:11:15;;;;;;;11.30;2.80;;;;;;;;;;2104990;28;20450;-58
2023/05/28 04:12:35;;;;;;;7.75;3.38;;;;;;;;;;2104926;28;20392;-59
2023/05/28 04:13:54;;;;;;;7.07;3.22;;;;;;;;;;2102807;28;20070;-59
2023/05/28 04:15:12;;;;;;;7.45;3.05;;;;;;;;;;2102904;28;20472;-63
2023/05/28 04:16:31;;;;;;;9.45;3.20;;;;;;;;;;2104158;28;20028;-59
2023/05/28 04:17:50;;;;;;;8.13;3.33;;;;;;;;;;2103201;28;20431;-64
2023/05/28 04:19:09;;;;;;;7.65;3.13;;;;;;;;;;2101915;28;21623;-59
2023/05/28 04:20:29;;;;;;;11.30;3.67;;;;;;;;;;2103491;28;20028;-63
2023/05/28 04:21:49;;;;;;;6.50;3.25;;;;;;;;;;2102927;28;20028;-59
2023/05/28 04:23:08;;;;;;;7.70;3.22;;;;;;;;;;2104416;28;20064;-59
2023/05/28 04:24:27;;;;;;;6.22;3.17;;;;;;;;;;2104528;28;20161;-58
2023/05/28 04:25:46;;;;;;;11.07;3.53;;;;;;;;;;2103510;28;20036;-58
2023/05/28 04:27:06;;;;;;;7.60;3.13;;;;;;;;;;2103353;28;20028;-59
2023/05/28 04:28:27;;;;;;;8.18;3.50;;;;;;;;;;2103806;28;20729;-58
2023/05/28 04:29:46;;;;;;;8.40;3.03;;;;;;;;;;2102174;28;20114;-58
2023/05/28 04:31:06;;;;;;;8.07;3.33;;;;;;;;;;2102581;28;20012;-59
2023/05/28 04:32:24;;;;;;;10.38;3.28;;;;;;;;;;2102905;28;20487;-59
2023/05/28 04:33:46;;;;;;;13.20;3.60;;;;;;;;;;2104071;28;20116;-57
2023/05/28 04:35:06;;;;;;;8.20;3.42;;;;;;;;;;2102965;28;20020;-57
2023/05/28 04:36:29;;;;;;;11.82;4.25;;;;;;;;;;2105261;28;20396;-59
2023/05/28 04:37:50;;;;;;;6.00;3.30;;;;;;;;;;2103756;28;20028;-59
2023/05/28 04:39:10;;;;;;;10.23;3.53;;;;;;;;;;2100144;28;20036;-59
2023/05/28 04:40:29;;;;;;;9.70;3.17;;;;;;;;;;2103094;28;20107;-59
2023/05/28 04:41:48;;;;;;;7.25;3.38;;;;;;;;;;2104479;28;20504;-59
2023/05/28 04:43:08;;;;;;;7.93;3.10;;;;;;;;;;2103193;28;20408;-58
2023/05/28 04:44:28;;;;;;;9.02;3.35;;;;;;;;;;2103865;28;20036;-59
2023/05/28 04:45:47;;;;;;;4.72;3.15;;;;;;;;;;2102947;28;20027;-59
2023/05/28 04:47:09;;;;;;;8.20;3.22;;;;;;;;;;2100553;28;20024;-59
2023/05/28 04:48:28;;;;;;;9.05;3.50;;;;;;;;;;2101990;28;20048;-58
2023/05/28 04:49:47;;;;;;;7.97;3.25;;;;;;;;;;2101664;28;20488;-59
2023/05/28 04:51:06;;;;;;;7.25;3.75;;;;;;;;;;2101188;28;20028;-61
2023/05/28 04:52:26;;;;;;;4.50;3.08;;;;;;;;;;2105120;28;20028;-59
2023/05/28 04:53:45;;;;;;;6.53;3.13;;;;;;;;;;2102832;28;20387;-62
2023/05/28 04:55:05;;;;;;;7.15;3.58;;;;;;;;;;2103265;28;20161;-61
2023/05/28 04:56:24;;;;;;;5.95;3.10;;;;;;;;;;2103370;28;20052;-58
2023/05/28 04:57:43;;;;;;;5.50;2.95;;;;;;;;;;2104118;28;20043;-60
2023/05/28 04:59:04;;;;;;;8.93;3.45;;;;;;;;;;2102145;28;20443;-59
2023/05/28 05:00:26;;;;;;;9.88;3.30;;;;;;;;;;2102110;28;20115;-59
2023/05/28 05:01:45;;;;;;;7.55;3.17;;;;;;;;;;2103671;28;20039;-59
2023/05/28 05:03:04;;;;;;;5.68;3.15;;;;;;;;;;2103294;28;20419;-59
2023/05/28 05:04:23;;;;;;;9.43;3.50;;;;;;;;;;2103661;28;20036;-59
2023/05/28 05:05:42;;;;;;;7.53;3.63;;;;;;;;;;2104385;28;20028;-58
2023/05/28 05:07:01;;;;;;;6.95;3.67;;;;;;;;;;2103575;28;20056;-59
2023/05/28 05:08:20;;;;;;;7.35;3.25;;;;;;;;;;2102637;28;20450;-59
2023/05/28 05:09:39;;;;;;;9.13;3.25;;;;;;;;;;2103204;28;20150;-60
2023/05/28 05:11:00;;;;;;;4.90;3.53;;;;;;;;;;2104152;28;20536;-59
2023/05/28 05:12:19;;;;;;;7.93;3.80;;;;;;;;;;2104071;28;20032;-61
2023/05/28 05:13:38;;;;;;;11.30;3.55;;;;;;;;;;2104334;28;20020;-60
2023/05/28 05:14:57;;;;;;;11.02;4.22;;;;;;;;;;2102380;28;20103;-60
2023/05/28 05:16:16;;;;;;;7.70;3.67;;;;;;;;;;2103087;28;20020;-59
2023/05/28 05:17:35;;;;;;;8.32;3.20;;;;;;;;;;2097520;28;20032;-59
2023/05/28 05:18:54;;;;;;;8.93;3.40;;;;;;;;;;2103477;28;20032;-60
2023/05/28 05:20:13;;;;;;;13.18;3.30;;;;;;;;;;2101836;28;20107;-59
2023/05/28 05:21:32;;;;;;;8.80;3.75;;;;;;;;;;2103623;28;20024;-59
2023/05/28 05:22:51;;;;;;;12.07;3.58;;;;;;;;;;2104282;28;20032;-60
2023/05/28 05:24:10;;;;;;;9.82;4.35;;;;;;;;;;2102113;28;20032;-59
2023/05/28 05:25:29;;;;;;;7.75;3.50;;;;;;;;;;2101815;28;20032;-60
2023/05/28 05:26:48;;;;;;;11.68;3.42;;;;;;;;;;2102843;28;20393;-59
2023/05/28 05:28:07;;;;;;;9.20;3.45;;;;;;;;;;2101383;28;20036;-60
2023/05/28 05:29:26;;;;;;;9.70;3.63;;;;;;;;;;2103676;28;20032;-60
2023/05/28 05:30:44;;;;;;;8.95;3.45;;;;;;;;;;2100943;28;20020;-59
2023/05/28 05:32:03;;;;;;;9.10;3.60;;;;;;;;;;2104172;28;20020;-59
2023/05/28 05:33:22;;;;;;;7.82;3.53;;;;;;;;;;2103804;28;20056;-59
2023/05/28 05:34:41;;;;;;;7.43;2.95;;;;;;;;;;2101945;28;20385;-60
2023/05/28 05:36:00;;;;;;;9.32;4.00;;;;;;;;;;2101572;28;20032;-59
2023/05/28 05:37:20;;;;;;;9.90;3.35;;;;;;;;;;2102838;28;20114;-60
2023/05/28 05:38:39;;;;;;;7.35;3.65;;;;;;;;;;2103628;28;20447;-59
2023/05/28 05:39:58;;;;;;;6.03;3.10;;;;;;;;;;2103393;28;20095;-60
2023/05/28 05:41:17;;;;;;;7.65;3.95;;;;;;;;;;2101606;28;20024;-59
2023/05/28 05:42:37;;;;;;;9.98;3.20;;;;;;;;;;2102655;28;21000;-59
2023/05/28 05:43:56;;;;;;;8.40;3.13;;;;;;;;;;2102642;28;20064;-60
2023/05/28 05:45:15;;;;;;;9.07;3.80;;;;;;;;;;2101463;28;21661;-59
2023/05/28 05:46:34;;;;;;;6.50;3.28;;;;;;;;;;2103308;28;20032;-60
2023/05/28 05:47:52;;;;;;;8.85;3.30;;;;;;;;;;2101695;28;20040;-59
2023/05/28 05:49:11;;;;;;;9.35;3.33;;;;;;;;;;2101921;28;20489;-59
2023/05/28 05:50:30;;;;;;;10.15;3.38;;;;;;;;;;2100094;28;20492;-59
2023/05/28 05:51:49;;;;;;;9.80;3.83;;;;;;;;;;2099127;28;20706;-60
2023/05/28 05:53:08;;;;;;;11.32;4.28;;;;;;;;;;2102094;28;20024;-60
2023/05/28 05:54:27;;;;;;;8.38;3.58;;;;;;;;;;2100588;28;20020;-59
2023/05/28 05:55:46;;;;;;;9.02;3.85;;;;;;;;;;2102891;28;20111;-62
2023/05/28 05:57:05;;;;;;;9.45;3.40;;;;;;;;;;2101262;28;20064;-59
2023/05/28 05:58:24;;;;;;;9.52;3.25;;;;;;;;;;2101604;28;20059;-59
2023/05/28 05:59:43;;;;;;;9.55;3.70;;;;;;;;;;2102701;28;20020;-59
2023/05/28 06:01:02;;;;;;;12.70;4.07;;;;;;;;;;2102637;28;20033;-59
2023/05/28 06:02:21;;;;;;;12.43;3.97;;;;;;;;;;2099451;28;20115;-59
2023/05/28 06:03:40;;;;;;;7.07;3.40;;;;;;;;;;2104754;28;21129;-59
2023/05/28 06:04:59;;;;;;;6.25;3.28;;;;;;;;;;2097664;28;20028;-59
2023/05/28 06:06:18;;;;;;;7.63;3.17;;;;;;;;;;2103627;28;20031;-59
2023/05/28 06:07:37;;;;;;;6.90;3.50;;;;;;;;;;2104451;28;20100;-58
2023/05/28 06:08:57;;;;;;;11.20;3.53;;;;;;;;;;2103300;28;20400;-59
2023/05/28 06:10:16;;;;;;;6.93;3.78;;;;;;;;;;2102252;28;20024;-60
2023/05/28 06:11:35;;;;;;;5.47;3.30;;;;;;;;;;2103916;28;20020;-60
2023/05/28 06:12:54;;;;;;;5.97;3.30;;;;;;;;;;2103729;28;20481;-60
2023/05/28 06:14:13;;;;;;;9.00;3.35;;;;;;;;;;2104011;28;20032;-60
2023/05/28 06:15:32;;;;;;;8.82;3.22;;;;;;;;;;2101347;28;20024;-58
2023/05/28 06:16:51;;;;;;;6.60;3.58;;;;;;;;;;2103735;28;20708;-59
2023/05/28 06:18:11;;;;;;;9.68;3.78;;;;;;;;;;2102442;28;20032;-59
2023/05/28 06:19:30;;;;;;;10.93;3.58;;;;;;;;;;2101016;28;20024;-60
2023/05/28 06:20:49;;;;;;;8.93;3.50;;;;;;;;;;2104851;28;20102;-60
2023/05/28 06:22:10;;;;;;;9.50;3.30;;;;;;;;;;2104873;28;20032;-60
2023/05/28 06:23:29;;;;;;;11.30;3.22;;;;;;;;;;2105552;28;20509;-59
2023/05/28 06:24:49;;;;;;;9.00;3.65;;;;;;;;;;2106881;28;20040;-59
2023/05/28 06:26:08;;;;;;;10.90;4.10;;;;;;;;;;2106919;28;20028;-59
2023/05/28 06:27:27;;;;;;;7.10;3.33;;;;;;;;;;2105325;28;20032;-59
2023/05/28 06:28:46;;;;;;;12.82;4.13;;;;;;;;;;2106110;28;20020;-59
2023/05/28 06:30:05;;;;;;;8.90;3.88;;;;;;;;;;2105476;28;20099;-60
2023/05/28 06:31:24;;;;;;;7.25;3.60;;;;;;;;;;2103211;28;20473;-59
2023/05/28 06:32:43;;;;;;;7.65;3.33;;;;;;;;;;2104533;28;20020;-58
2023/05/28 06:34:02;;;;;;;5.35;3.25;;;;;;;;;;2103379;28;20028;-58
2023/05/28 06:35:21;;;;;;;7.10;3.47;;;;;;;;;;2104204;28;20502;-60
2023/05/28 06:36:40;;;;;;;7.25;3.50;;;;;;;;;;2103096;28;20028;-59
2023/05/28 06:37:59;;;;;;;10.90;3.60;;;;;;;;;;2104056;28;20037;-60
2023/05/28 06:39:18;;;;;;;6.18;3.47;;;;;;;;;;2105117;28;20028;-61
2023/05/28 06:40:37;;;;;;;7.95;3.28;;;;;;;;;;2104608;28;20492;-59
2023/05/28 06:41:56;;;;;;;6.80;3.33;;;;;;;;;;2103759;28;20583;-59
2023/05/28 06:43:15;;;;;;;7.53;3.65;;;;;;;;;;2104702;28;20032;-60
2023/05/28 06:44:35;;;;;;;5.88;3.50;;;;;;;;;;2102925;28;20123;-59
2023/05/28 06:45:54;;;;;;;10.98;3.53;;;;;;;;;;2105382;28;20416;-60
2023/05/28 06:47:12;;;;;;;8.07;3.60;;;;;;;;;;2104577;28;20032;-59
2023/05/28 06:48:31;;;;;;;5.72;3.25;;;;;;;;;;2103866;28;20169;-60
2023/05/28 06:49:51;;;;;;;5.70;3.08;;;;;;;;;;2102193;28;20048;-60
2023/05/28 06:51:10;;;;;;;10.80;3.85;;;;;;;;;;2104059;28;20401;-60
2023/05/28 06:52:29;;;;;;;7.07;3.90;;;;;;;;;;2104907;28;20032;-59
2023/05/28 06:53:48;;;;;;;8.05;3.90;;;;;;;;;;2105219;28;20016;-60
2023/05/28 06:55:08;;;;;;;8.73;3.42;;;;;;;;;;2104528;28;20028;-59
2023/05/28 06:56:27;;;;;;;12.52;4.07;;;;;;;;;;2104409;28;20031;-60
2023/05/28 06:57:46;;;;;;;9.07;3.53;;;;;;;;;;2104337;28;20035;-59
2023/05/28 06:59:05;;;;;;;10.93;3.72;;;;;;;;;;2105271;28;20036;-60
2023/05/28 07:00:24;;;;;;;7.75;3.35;;;;;;;;;;2101987;28;20024;-60
2023/05/28 07:01:43;;;;;;;7.57;3.33;;;;;;;;;;2102721;28;20028;-60
2023/05/28 07:03:02;;;;;;;19.75;3.50;;;;;;;;;;2104302;28;20043;-60
2023/05/28 07:04:21;;;;;;;9.18;3.90;;;;;;;;;;2105025;28;20020;-60
2023/05/28 07:05:40;;;;;;;7.78;3.88;;;;;;;;;;2106174;28;20032;-60
2023/05/28 07:07:00;;;;;;;9.52;4.13;;;;;;;;;;2105067;28;20051;-60
2023/05/28 07:08:19;;;;;;;10.20;3.83;;;;;;;;;;2105024;28;20032;-60
2023/05/28 07:09:38;;;;;;;6.97;3.80;;;;;;;;;;2104891;28;20028;-59
2023/05/28 07:10:57;;;;;;;9.95;4.18;;;;;;;;;;2102985;28;20416;-60
2023/05/28 07:12:16;;;;;;;7.30;3.80;;;;;;;;;;2103538;28;20028;-59
2023/05/28 07:13:35;;;;;;;13.52;4.05;;;;;;;;;;2102620;28;20024;-59
2023/05/28 07:14:55;;;;;;;10.35;4.40;;;;;;;;;;2105179;28;20035;-59
2023/05/28 07:16:14;;;;;;;4.53;3.67;;;;;;;;;;2105767;28;20593;-60
2023/05/28 07:17:33;;;;;;;12.20;3.42;;;;;;;;;;2104577;28;20024;-59
2023/05/28 07:18:52;;;;;;;10.65;3.90;;;;;;;;;;2102758;28;20048;-60
2023/05/28 07:20:11;;;;;;;9.27;3.50;;;;;;;;;;2104885;28;20024;-61
2023/05/28 07:21:32;;;;;;;7.72;3.88;;;;;;;;;;2103679;28;20162;-60
2023/05/28 07:22:51;;;;;;;13.85;4.28;;;;;;;;;;2104137;28;20596;-59
2023/05/28 07:24:10;;;;;;;7.32;3.63;;;;;;;;;;2105563;28;20028;-60
2023/05/28 07:25:29;;;;;;;7.70;3.15;;;;;;;;;;2104819;28;20028;-60
2023/05/28 07:26:48;;;;;;;12.45;4.53;;;;;;;;;;2105788;28;20024;-60
2023/05/28 07:28:07;;;;;;;9.02;3.83;;;;;;;;;;2103347;28;20036;-58
2023/05/28 07:29:26;;;;;;;10.07;4.13;;;;;;;;;;2102626;28;20080;-59
2023/05/28 07:30:45;;;;;;;5.47;3.55;;;;;;;;;;2103078;28;20401;-60
2023/05/28 07:32:04;;;;;;;6.88;3.92;;;;;;;;;;2104488;28;20028;-60
2023/05/28 07:33:23;;;;;;;10.10;3.50;;;;;;;;;;2103370;28;20028;-60
2023/05/28 07:34:42;;;;;;;8.45;3.63;;;;;;;;;;2104708;28;20028;-59
2023/05/28 07:36:01;;;;;;;9.43;3.72;;;;;;;;;;2104849;28;20028;-60
2023/05/28 07:37:20;;;;;;;7.07;3.55;;;;;;;;;;2101534;28;20111;-61
2023/05/28 07:38:39;;;;;;;11.93;3.85;;;;;;;;;;2102484;28;20111;-58
2023/05/28 07:39:59;;;;;;;8.60;3.42;;;;;;;;;;2103397;28;20024;-61
2023/05/28 07:41:18;;;;;;;10.00;4.22;;;;;;;;;;2102542;28;20714;-60
2023/05/28 07:42:37;;;;;;;11.38;3.75;;;;;;;;;;2101242;28;20074;-60
2023/05/28 07:43:56;;;;;;;7.60;3.70;;;;;;;;;;2105998;28;20427;-59
2023/05/28 07:45:15;;;;;;;7.35;3.55;;;;;;;;;;2104104;28;20593;-61
2023/05/28 07:46:36;;;;;;;8.90;3.90;;;;;;;;;;2104165;28;20060;-61
2023/05/28 07:47:55;;;;;;;10.77;3.47;;;;;;;;;;2102908;28;20032;-60
2023/05/28 07:49:16;;;;;;;15.10;4.20;;;;;;;;;;2103258;28;20103;-62
2023/05/28 07:50:35;;;;;;;9.90;3.92;;;;;;;;;;2105568;28;20445;-61
2023/05/28 07:51:53;;;;;;;7.57;4.13;;;;;;;;;;2104156;28;20477;-62
2023/05/28 07:53:12;;;;;;;10.38;3.90;;;;;;;;;;2101626;28;20039;-65
2023/05/28 07:54:33;;;;;;;4.97;3.83;;;;;;;;;;2103585;28;20027;-61